createdAt,value
2019-04-05T00:01:33.591Z,97337.11
2019-04-05T00:03:37.325Z,97336.02
2019-04-05T00:05:41.194Z,97331.44
2019-04-05T00:07:44.920Z,97329.83
2019-04-05T00:09:48.635Z,97331.19
2019-04-05T00:11:52.361Z,97327.89
2019-04-05T00:13:56.155Z,97327.89
2019-04-05T00:16:01.028Z,97331.19
2019-04-05T00:18:04.828Z,97333.34
2019-04-05T00:20:09.309Z,97328.22
2019-04-05T00:22:13.119Z,97335.84
2019-04-05T00:24:16.851Z,97333.66
2019-04-05T00:26:20.572Z,97335.81
2019-04-05T00:28:24.307Z,97341.73
2019-04-05T00:30:31.075Z,97324.63
2019-04-05T00:32:34.813Z,97327.34
2019-04-05T00:34:38.546Z,97327.63
2019-04-05T00:36:42.308Z,97331.17
2019-04-05T00:38:46.041Z,97327.88
2019-04-05T00:40:49.773Z,97327.33
2019-04-05T00:42:53.504Z,97324.62
2019-04-05T00:44:57.216Z,97319.48
2019-04-05T00:47:00.961Z,97319.21
2019-04-05T00:49:04.862Z,97318.69
2019-04-05T00:51:08.673Z,97317.34
2019-04-05T00:53:12.498Z,97321.41
2019-04-05T00:55:16.375Z,97332.54
2019-04-05T00:57:20.106Z,97319.52
2019-04-05T00:59:23.914Z,97318.69
2019-04-05T01:01:27.724Z,97312.72
2019-04-05T01:03:31.447Z,97310.83
2019-04-05T01:05:35.350Z,97314.91
2019-04-05T01:07:39.270Z,97311.64
2019-04-05T01:09:43.143Z,97308.67
2019-04-05T01:11:47.013Z,97310.86
2019-04-05T01:13:51.903Z,97302.97
2019-04-05T01:15:55.637Z,97308.14
2019-04-05T01:17:59.378Z,97307.31
2019-04-05T01:20:04.460Z,97309.20
2019-04-05T01:22:10.359Z,97308.67
2019-04-05T01:24:15.242Z,97309.48
2019-04-05T01:26:19.956Z,97305.14
2019-04-05T01:28:24.366Z,97315.16
2019-04-05T01:30:31.115Z,97315.16
2019-04-05T01:32:35.038Z,97320.03
2019-04-05T01:34:38.827Z,97315.41
2019-04-05T01:36:43.689Z,97322.16
2019-04-05T01:38:47.435Z,97325.68
2019-04-05T01:40:51.501Z,97329.47
2019-04-05T01:42:55.497Z,97331.64
2019-04-05T01:45:00.057Z,97335.70
2019-04-05T01:47:03.845Z,97336.52
2019-04-05T01:49:07.602Z,97334.88
2019-04-05T01:51:11.475Z,97335.96
2019-04-05T01:53:15.286Z,97341.13
2019-04-05T01:55:19.073Z,97346.79
2019-04-05T01:57:22.805Z,97343.28
2019-04-05T01:59:26.619Z,97343.55
2019-04-05T02:01:30.485Z,97343.55
2019-04-05T02:03:34.359Z,97356.02
2019-04-05T02:05:38.226Z,97351.41
2019-04-05T02:07:42.587Z,97360.88
2019-04-05T02:09:46.475Z,97368.71
2019-04-05T02:11:50.358Z,97366.00
2019-04-05T02:13:54.171Z,97373.31
2019-04-05T02:16:06.046Z,97370.87
2019-04-05T02:18:04.651Z,97371.09
2019-04-05T02:20:08.965Z,97374.88
2019-04-05T02:22:12.809Z,97368.66
2019-04-05T02:24:16.609Z,97378.98
2019-04-05T02:26:20.420Z,97380.06
2019-04-05T02:28:25.459Z,97378.18
2019-04-05T02:30:29.477Z,97371.95
2019-04-05T02:32:33.281Z,97374.13
2019-04-05T02:34:37.131Z,97377.65
2019-04-05T02:36:40.995Z,97380.36
2019-04-05T02:38:44.807Z,97374.13
2019-04-05T02:40:50.382Z,97379.84
2019-04-05T02:42:56.997Z,97379.58
2019-04-05T02:45:00.875Z,97373.33
2019-04-05T02:47:05.955Z,97369.27
2019-04-05T02:49:10.133Z,97371.15
2019-04-05T02:51:17.339Z,97367.65
2019-04-05T02:53:22.757Z,97367.91
2019-04-05T02:55:27.453Z,97364.66
2019-04-05T02:57:32.827Z,97357.36
2019-04-05T02:59:37.225Z,97364.13
2019-04-05T03:01:42.513Z,97361.13
2019-04-05T03:03:46.433Z,97367.36
2019-04-05T03:05:50.328Z,97371.42
2019-04-05T03:07:54.319Z,97366.27
2019-04-05T03:09:59.134Z,97365.16
2019-04-05T03:12:03.489Z,97364.90
2019-04-05T03:14:10.126Z,97359.48
2019-04-05T03:16:18.814Z,97354.84
2019-04-05T03:18:25.274Z,97358.40
2019-04-05T03:20:29.263Z,97369.27
2019-04-05T03:22:36.058Z,97371.71
2019-04-05T03:24:42.759Z,97376.33
2019-04-05T03:26:53.414Z,97376.06
2019-04-05T03:29:00.201Z,97381.48
2019-04-05T03:31:04.409Z,97371.99
2019-04-05T03:33:09.098Z,97378.25
2019-04-05T03:35:12.998Z,97383.14
2019-04-05T03:37:18.006Z,97374.19
2019-04-05T03:39:22.883Z,97377.96
2019-04-05T03:41:26.878Z,97379.08
2019-04-05T03:43:30.687Z,97382.32
2019-04-05T03:45:35.574Z,97380.14
2019-04-05T03:47:39.645Z,97385.86
2019-04-05T03:49:43.631Z,97386.67
2019-04-05T03:51:47.449Z,97386.11
2019-04-05T03:53:51.588Z,97389.39
2019-04-05T03:55:56.240Z,97391.53
2019-04-05T03:58:00.047Z,97391.00
2019-04-05T04:00:04.317Z,97395.89
2019-04-05T04:02:08.119Z,97397.55
2019-04-05T04:04:12.007Z,97402.67
2019-04-05T04:06:15.857Z,97405.38
2019-04-05T04:08:23.243Z,97399.41
2019-04-05T04:10:27.858Z,97401.83
2019-04-05T04:12:33.738Z,97397.77
2019-04-05T04:14:37.700Z,97399.92
2019-04-05T04:16:41.696Z,97399.92
2019-04-05T04:18:45.866Z,97399.92
2019-04-05T04:20:52.753Z,97393.14
2019-04-05T04:22:56.615Z,97396.15
2019-04-05T04:25:00.897Z,97394.80
2019-04-05T04:27:04.770Z,97393.67
2019-04-05T04:29:08.644Z,97400.73
2019-04-05T04:31:12.451Z,97399.08
2019-04-05T04:33:17.973Z,97397.72
2019-04-05T04:35:21.824Z,97397.17
2019-04-05T04:37:25.820Z,97402.91
2019-04-05T04:39:31.647Z,97403.45
2019-04-05T04:41:35.995Z,97401.28
2019-04-05T04:43:40.190Z,97408.05
2019-04-05T04:45:44.278Z,97406.97
2019-04-05T04:47:48.320Z,97412.39
2019-04-05T04:49:53.747Z,97409.95
2019-04-05T04:51:57.809Z,97416.48
2019-04-05T04:54:01.885Z,97418.63
2019-04-05T04:56:05.774Z,97415.89
2019-04-05T04:58:09.766Z,97422.41
2019-04-05T05:00:13.750Z,97422.92
2019-04-05T05:02:17.640Z,97433.22
2019-04-05T05:04:21.623Z,97433.19
2019-04-05T05:06:25.500Z,97432.08
2019-04-05T05:08:29.493Z,97433.43
2019-04-05T05:10:33.415Z,97436.97
2019-04-05T05:12:37.713Z,97442.39
2019-04-05T05:14:41.582Z,97449.72
2019-04-05T05:16:45.501Z,97442.15
2019-04-05T05:18:49.684Z,97438.34
2019-04-05T05:20:53.568Z,97442.70
2019-04-05T05:22:57.466Z,97454.37
2019-04-05T05:25:01.657Z,97448.37
2019-04-05T05:27:05.789Z,97445.97
2019-04-05T05:29:09.685Z,97445.69
2019-04-05T05:31:13.505Z,97451.94
2019-04-05T05:33:23.663Z,97445.97
2019-04-05T05:35:27.779Z,97441.90
2019-04-05T05:37:32.962Z,97439.74
2019-04-05T05:39:36.783Z,97443.83
2019-04-05T05:41:40.527Z,97442.77
2019-04-05T05:43:44.411Z,97440.58
2019-04-05T05:45:48.290Z,97441.12
2019-04-05T05:47:52.642Z,97440.05
2019-04-05T05:49:56.391Z,97440.87
2019-04-05T05:52:00.573Z,97434.89
2019-04-05T05:54:04.394Z,97439.27
2019-04-05T05:56:08.123Z,97442.53
2019-04-05T05:58:12.891Z,97445.01
2019-04-05T06:00:18.942Z,97444.44
2019-04-05T06:02:22.821Z,97450.96
2019-04-05T06:04:26.558Z,97454.45
2019-04-05T06:06:31.282Z,97453.61
2019-04-05T06:08:35.048Z,97456.55
2019-04-05T06:10:38.781Z,97447.63
2019-04-05T06:12:42.530Z,97452.49
2019-04-05T06:14:46.291Z,97447.07
2019-04-05T06:16:51.183Z,97446.83
2019-04-05T06:18:54.925Z,97450.36
2019-04-05T06:21:03.416Z,97448.20
2019-04-05T06:23:08.351Z,97453.09
2019-04-05T06:25:12.162Z,97455.83
2019-04-05T06:27:15.914Z,97459.90
2019-04-05T06:29:21.713Z,97460.16
2019-04-05T06:31:25.474Z,97460.71
2019-04-05T06:33:31.908Z,97463.71
2019-04-05T06:35:34.881Z,97467.27
2019-04-05T06:37:38.595Z,97461.84
2019-04-05T06:39:43.455Z,97458.04
2019-04-05T06:41:47.183Z,97457.53
2019-04-05T06:43:50.929Z,97464.31
2019-04-05T06:45:54.712Z,97462.11
2019-04-05T06:47:58.505Z,97461.34
2019-04-05T06:50:02.338Z,97459.17
2019-04-05T06:52:06.227Z,97459.17
2019-04-05T06:54:09.983Z,97460.53
2019-04-05T06:56:13.740Z,97461.38
2019-04-05T06:58:20.592Z,97460.55
2019-04-05T07:00:29.981Z,97463.25
2019-04-05T07:02:33.821Z,97460.80
2019-04-05T07:04:37.553Z,97462.73
2019-04-05T07:06:42.351Z,97469.52
2019-04-05T07:08:53.918Z,97462.98
2019-04-05T07:10:55.626Z,97463.80
2019-04-05T07:13:00.649Z,97461.91
2019-04-05T07:15:04.850Z,97463.28
2019-04-05T07:17:08.605Z,97464.38
2019-04-05T07:19:12.500Z,97471.17
2019-04-05T07:21:17.416Z,97461.67
2019-04-05T07:23:21.282Z,97463.64
2019-04-05T07:25:25.050Z,97454.71
2019-04-05T07:27:35.616Z,97447.69
2019-04-05T07:29:42.393Z,97445.30
2019-04-05T07:31:46.131Z,97444.00
2019-04-05T07:33:50.881Z,97450.80
2019-04-05T07:35:54.610Z,97449.70
2019-04-05T07:37:58.426Z,97455.70
2019-04-05T07:40:06.156Z,97460.03
2019-04-05T07:42:09.916Z,97462.77
2019-04-05T07:44:14.674Z,97465.48
2019-04-05T07:46:18.411Z,97467.39
2019-04-05T07:48:22.150Z,97463.86
2019-04-05T07:50:25.877Z,97475.27
2019-04-05T07:52:29.622Z,97470.92
2019-04-05T07:54:34.406Z,97472.05
2019-04-05T07:56:39.136Z,97477.75
2019-04-05T07:58:42.973Z,97477.78
2019-04-05T08:00:53.796Z,97477.30
2019-04-05T08:02:57.604Z,97477.31
2019-04-05T08:05:02.309Z,97478.39
2019-04-05T08:07:06.707Z,97475.42
2019-04-05T08:09:13.202Z,97477.33
2019-04-05T08:11:17.724Z,97476.27
2019-04-05T08:13:24.009Z,97476.54
2019-04-05T08:15:28.309Z,97479.83
2019-04-05T08:17:32.043Z,97483.67
2019-04-05T08:19:42.847Z,97480.13
2019-04-05T08:21:46.574Z,97487.20
2019-04-05T08:23:51.317Z,97496.13
2019-04-05T08:25:55.118Z,97490.17
2019-04-05T08:27:58.948Z,97493.72
2019-04-05T08:30:02.772Z,97500.02
2019-04-05T08:32:14.447Z,97503.55
2019-04-05T08:34:12.057Z,97506.80
2019-04-05T08:36:15.783Z,97506.25
2019-04-05T08:38:19.563Z,97505.67
2019-04-05T08:40:23.383Z,97502.94
2019-04-05T08:42:27.132Z,97507.02
2019-04-05T08:44:30.868Z,97505.66
2019-04-05T08:46:35.899Z,97508.11
2019-04-05T08:48:39.618Z,97507.02
2019-04-05T08:50:43.459Z,97508.94
2019-04-05T08:52:47.188Z,97510.84
2019-04-05T08:54:50.911Z,97508.39
2019-04-05T08:56:54.647Z,97508.16
2019-04-05T08:58:58.420Z,97503.56
2019-04-05T09:01:05.355Z,97504.38
2019-04-05T09:03:12.031Z,97507.66
2019-04-05T09:05:16.068Z,97509.58
2019-04-05T09:07:19.805Z,97510.69
2019-04-05T09:09:23.542Z,97513.95
2019-04-05T09:11:27.270Z,97518.59
2019-04-05T09:13:31.018Z,97519.39
2019-04-05T09:15:35.770Z,97518.05
2019-04-05T09:17:39.528Z,97519.97
2019-04-05T09:19:43.352Z,97527.27
2019-04-05T09:21:47.101Z,97528.61
2019-04-05T09:23:50.802Z,97522.34
2019-04-05T09:25:54.531Z,97524.53
2019-04-05T09:27:58.253Z,97527.00
2019-04-05T09:30:01.985Z,97528.39
2019-04-05T09:32:05.813Z,97528.95
2019-04-05T09:34:11.553Z,97524.89
2019-04-05T09:36:15.365Z,97527.06
2019-04-05T09:38:19.123Z,97525.98
2019-04-05T09:40:23.016Z,97530.08
2019-04-05T09:42:26.761Z,97527.67
2019-04-05T09:44:31.554Z,97528.50
2019-04-05T09:46:46.095Z,97528.52
2019-04-05T09:48:40.747Z,97530.45
2019-04-05T09:50:47.556Z,97529.89
2019-04-05T09:52:51.278Z,97534.55
2019-04-05T09:54:55.009Z,97529.91
2019-04-05T09:56:58.766Z,97533.47
2019-04-05T09:59:02.578Z,97535.13
2019-04-05T10:01:06.383Z,97539.48
2019-04-05T10:03:10.108Z,97541.14
2019-04-05T10:05:14.005Z,97546.29
2019-04-05T10:07:17.806Z,97544.13
2019-04-05T10:09:21.618Z,97549.27
2019-04-05T10:11:25.343Z,97545.19
2019-04-05T10:13:29.133Z,97550.34
2019-04-05T10:15:33.035Z,97557.14
2019-04-05T10:17:36.831Z,97549.25
2019-04-05T10:19:49.760Z,97548.42
2019-04-05T10:21:46.001Z,97550.62
2019-04-05T10:23:49.719Z,97543.27
2019-04-05T10:25:53.448Z,97537.02
2019-04-05T10:27:57.254Z,97536.73
2019-04-05T10:30:01.012Z,97540.59
2019-04-05T10:32:06.822Z,97543.32
2019-04-05T10:34:10.621Z,97538.14
2019-04-05T10:36:20.314Z,97541.14
2019-04-05T10:38:23.988Z,97543.07
2019-04-05T10:40:27.783Z,97538.98
2019-04-05T10:42:33.549Z,97540.07
2019-04-05T10:44:37.346Z,97538.17
2019-04-05T10:46:41.097Z,97535.98
2019-04-05T10:48:50.604Z,97538.97
2019-04-05T10:50:54.398Z,97543.34
2019-04-05T10:52:58.135Z,97542.81
2019-04-05T10:55:02.860Z,97541.97
2019-04-05T10:57:06.639Z,97535.72
2019-04-05T10:59:10.425Z,97529.45
2019-04-05T11:01:14.236Z,97525.64
2019-04-05T11:03:17.969Z,97525.36
2019-04-05T11:05:24.833Z,97525.65
2019-04-05T11:07:28.578Z,97524.00
2019-04-05T11:09:32.380Z,97519.38
2019-04-05T11:11:36.151Z,97512.00
2019-04-05T11:13:42.196Z,97509.19
2019-04-05T11:15:46.084Z,97514.55
2019-04-05T11:17:53.123Z,97504.06
2019-04-05T11:19:57.853Z,97496.52
2019-04-05T11:22:02.574Z,97488.67
2019-04-05T11:24:06.349Z,97485.80
2019-04-05T11:26:12.072Z,97483.28
2019-04-05T11:28:15.823Z,97481.22
2019-04-05T11:30:49.478Z,97483.99
2019-04-05T11:32:53.310Z,97484.41
2019-04-05T11:34:57.191Z,97493.28
2019-04-05T11:37:02.781Z,97485.02
2019-04-05T11:39:08.101Z,97487.67
2019-04-05T11:41:13.274Z,97477.48
2019-04-05T11:43:18.617Z,97479.38
2019-04-05T11:45:22.435Z,97477.16
2019-04-05T11:47:27.221Z,97473.86
2019-04-05T11:49:32.672Z,97462.45
2019-04-05T11:51:37.478Z,97468.88
2019-04-05T11:53:50.435Z,97466.95
2019-04-05T11:56:13.454Z,97472.39
2019-04-05T11:58:06.750Z,97463.01
2019-04-05T12:00:19.626Z,97460.81
2019-04-05T12:02:33.070Z,97465.06
2019-04-05T12:04:42.955Z,97453.50
2019-04-05T12:06:46.728Z,97463.83
2019-04-05T12:08:53.768Z,97465.55
2019-04-05T12:10:59.543Z,97459.91
2019-04-05T12:13:13.330Z,97463.19
2019-04-05T12:15:17.145Z,97460.02
2019-04-05T12:17:21.167Z,97462.69
2019-04-05T12:19:34.073Z,97456.74
2019-04-05T12:21:47.179Z,97453.45
2019-04-05T12:23:50.918Z,97450.52
2019-04-05T12:25:57.678Z,97452.20
2019-04-05T12:28:10.618Z,97456.33
2019-04-05T12:30:17.511Z,97455.09
2019-04-05T12:32:41.045Z,97447.56
2019-04-05T12:34:46.698Z,97444.06
2019-04-05T12:36:59.588Z,97443.25
2019-04-05T12:39:08.195Z,97445.38
2019-04-05T12:41:14.199Z,97434.16
2019-04-05T12:43:25.049Z,97430.51
2019-04-05T12:45:29.885Z,97441.28
2019-04-05T12:47:34.070Z,97439.67
2019-04-05T12:49:45.508Z,97443.03
2019-04-05T12:51:52.515Z,97434.06
2019-04-05T12:54:05.745Z,97422.34
2019-04-05T12:56:15.514Z,97421.28
2019-04-05T12:58:27.454Z,97417.24
2019-04-05T13:00:50.036Z,97422.41
2019-04-05T13:02:57.142Z,97426.91
2019-04-05T13:05:36.123Z,97427.00
2019-04-05T13:07:46.152Z,97424.08
2019-04-05T13:09:57.054Z,97422.02
2019-04-05T13:12:13.052Z,97422.40
2019-04-05T13:14:18.940Z,97418.59
2019-04-05T13:16:24.706Z,97423.30
2019-04-05T13:18:41.396Z,97424.12
2019-04-05T13:20:45.163Z,97425.43
2019-04-05T13:22:49.954Z,97430.89
2019-04-05T13:24:56.871Z,97430.38
2019-04-05T13:27:11.850Z,97426.66
2019-04-05T13:29:15.348Z,97430.56
2019-04-05T13:31:26.201Z,97433.91
2019-04-05T13:33:45.373Z,97429.69
2019-04-05T13:35:55.894Z,97430.84
2019-04-05T13:38:15.122Z,97431.98
2019-04-05T13:40:25.065Z,97435.23
2019-04-05T13:42:31.219Z,97431.20
2019-04-05T13:44:36.296Z,97431.20
2019-04-05T13:46:42.663Z,97431.23
2019-04-05T13:48:46.598Z,97434.19
2019-04-05T13:50:59.722Z,97430.14
2019-04-05T13:53:11.127Z,97429.07
2019-04-05T13:57:48.824Z,97433.95
2019-04-05T14:00:18.190Z,97428.75
2019-04-05T14:02:26.987Z,97429.59
2019-04-05T14:04:32.708Z,97426.34
2019-04-05T14:06:38.521Z,97425.22
2019-04-05T14:08:42.252Z,97425.97
2019-04-05T14:11:12.042Z,97422.63
2019-04-05T14:13:23.867Z,97417.33
2019-04-05T14:20:57.052Z,97393.80
2019-04-05T14:23:09.865Z,97398.94
2019-04-05T14:25:19.816Z,97402.31
2019-04-05T14:27:51.757Z,97395.78
2019-04-05T14:29:56.482Z,97393.38
2019-04-05T14:32:19.818Z,97393.20
2019-04-05T14:34:11.695Z,97388.30
2019-04-05T14:36:18.708Z,97384.41
2019-04-05T14:38:31.227Z,97385.46
2019-04-05T14:40:38.450Z,97387.47
2019-04-05T14:42:48.430Z,97387.30
2019-04-05T14:44:54.482Z,97380.93
2019-04-05T14:47:04.536Z,97382.73
2019-04-05T14:49:11.378Z,97386.98
2019-04-05T14:51:24.473Z,97390.73
2019-04-05T14:53:32.012Z,97387.80
2019-04-05T14:55:40.797Z,97383.33
2019-04-05T14:57:48.798Z,97386.42
2019-04-05T15:00:00.651Z,97384.33
2019-04-05T15:02:06.555Z,97381.31
2019-04-05T15:04:12.099Z,97380.77
2019-04-05T15:06:26.641Z,97383.55
2019-04-05T15:08:33.775Z,97376.47
2019-04-05T15:10:38.515Z,97378.47
2019-04-05T15:12:42.248Z,97382.31
2019-04-05T15:14:46.984Z,97384.77
2019-04-05T15:16:55.759Z,97383.98
2019-04-05T15:18:59.497Z,97383.91
2019-04-05T15:21:09.292Z,97378.07
2019-04-05T15:23:14.055Z,97373.83
2019-04-05T15:25:21.613Z,97379.72
2019-04-05T15:27:28.352Z,97370.95
2019-04-05T15:29:35.148Z,97375.06
2019-04-05T15:31:38.901Z,97373.66
2019-04-05T15:33:48.535Z,97368.95
2019-04-05T15:35:52.297Z,97368.86
2019-04-05T15:38:02.290Z,97369.86
2019-04-05T15:40:18.656Z,97369.63
2019-04-05T15:42:32.433Z,97369.05
2019-04-05T15:44:36.170Z,97365.25
2019-04-05T15:46:40.996Z,97370.13
2019-04-05T15:48:44.794Z,97364.05
2019-04-05T15:50:51.634Z,97364.28
2019-04-05T15:52:56.079Z,97363.19
2019-04-05T15:55:06.470Z,97369.31
2019-04-05T15:57:10.224Z,97364.20
2019-04-05T15:59:15.039Z,97363.70
2019-04-05T16:01:18.952Z,97367.16
2019-04-05T16:03:32.355Z,97366.13
2019-04-05T16:05:38.973Z,97361.09
2019-04-05T16:07:45.830Z,97361.45
2019-04-05T16:09:54.639Z,97360.45
2019-04-05T16:12:02.452Z,97357.02
2019-04-05T16:14:06.350Z,97362.66
2019-04-05T16:16:10.091Z,97364.50
2019-04-05T16:18:14.919Z,97359.97
2019-04-05T16:20:25.533Z,97357.63
2019-04-05T16:22:35.680Z,97358.56
2019-04-05T16:24:39.067Z,97358.56
2019-04-05T16:26:43.825Z,97358.02
2019-04-05T16:28:47.559Z,97354.15
2019-04-05T16:30:54.476Z,97351.64
2019-04-05T16:32:58.228Z,97351.88
2019-04-05T16:35:01.983Z,97355.98
2019-04-05T16:37:06.884Z,97349.42
2019-04-05T16:39:18.590Z,97338.23
2019-04-05T16:41:30.266Z,97334.17
2019-04-05T16:43:35.000Z,97336.63
2019-04-05T16:45:38.905Z,97333.67
2019-04-05T16:47:44.686Z,97344.92
2019-04-05T16:49:50.440Z,97336.80
2019-04-05T16:51:56.220Z,97336.60
2019-04-05T16:54:00.738Z,97329.84
2019-04-05T16:56:05.476Z,97332.06
2019-04-05T16:58:09.219Z,97329.91
2019-04-05T17:00:14.543Z,97323.66
2019-04-05T17:02:21.330Z,97325.06
2019-04-05T17:04:31.305Z,97326.22
2019-04-05T17:06:35.042Z,97331.77
2019-04-05T17:08:38.818Z,97330.47
2019-04-05T17:10:42.546Z,97334.63
2019-04-05T17:12:46.293Z,97334.95
2019-04-05T17:14:50.059Z,97334.22
2019-04-05T17:17:00.060Z,97338.63
2019-04-05T17:19:06.928Z,97346.62
2019-04-05T17:21:10.675Z,97348.05
2019-04-05T17:23:14.444Z,97344.55
2019-04-05T17:25:19.278Z,97344.65
2019-04-05T17:27:24.021Z,97351.53
2019-04-05T17:29:27.764Z,97350.23
2019-04-05T17:31:31.602Z,97353.02
2019-04-05T17:33:35.468Z,97352.53
2019-04-05T17:35:42.418Z,97352.03
2019-04-05T17:37:50.400Z,97355.94
2019-04-05T17:40:00.207Z,97355.98
2019-04-05T17:42:10.081Z,97356.59
2019-04-05T17:44:16.955Z,97362.09
2019-04-05T17:46:21.800Z,97363.80
2019-04-05T17:48:27.630Z,97361.13
2019-04-05T17:50:33.614Z,97356.84
2019-04-05T17:52:38.367Z,97360.16
2019-04-05T17:54:43.148Z,97359.38
2019-04-05T17:56:47.534Z,97360.78
2019-04-05T17:58:51.552Z,97362.47
2019-04-05T18:00:58.538Z,97363.87
2019-04-05T18:03:02.362Z,97365.80
2019-04-05T18:05:06.409Z,97362.27
2019-04-05T18:07:16.167Z,97361.46
2019-04-05T18:09:20.005Z,97372.39
2019-04-05T18:11:27.787Z,97371.62
2019-04-05T18:13:34.573Z,97379.81
2019-04-05T18:15:52.410Z,97378.47
2019-04-05T18:17:52.034Z,97378.73
2019-04-05T18:19:55.783Z,97376.86
2019-04-05T18:22:06.003Z,97379.62
2019-04-05T18:24:09.755Z,97388.13
2019-04-05T18:26:14.509Z,97390.88
2019-04-05T18:28:18.283Z,97393.63
2019-04-05T18:30:22.059Z,97399.66
2019-04-05T18:32:25.818Z,97401.58
2019-04-05T18:34:30.564Z,97408.69
2019-04-05T18:36:37.314Z,97405.95
2019-04-05T18:38:44.171Z,97399.38
2019-04-05T18:40:51.258Z,97407.32
2019-04-05T18:42:55.006Z,97413.31
2019-04-05T18:44:59.741Z,97415.23
2019-04-05T18:47:03.584Z,97412.80
2019-04-05T18:49:08.414Z,97419.63
2019-04-05T18:51:14.358Z,97409.84
2019-04-05T18:53:20.113Z,97421.28
2019-04-05T18:55:29.776Z,97419.68
2019-04-05T18:57:33.520Z,97422.95
2019-04-05T18:59:37.272Z,97425.39
2019-04-05T19:01:41.101Z,97427.30
2019-04-05T19:03:44.868Z,97428.12
2019-04-05T19:05:48.605Z,97427.03
2019-04-05T19:07:52.427Z,97426.73
2019-04-05T19:09:56.194Z,97427.84
2019-04-05T19:12:04.348Z,97428.92
2019-04-05T19:14:08.097Z,97423.49
2019-04-05T19:16:13.909Z,97428.12
2019-04-05T19:18:17.674Z,97423.21
2019-04-05T19:20:21.423Z,97423.22
2019-04-05T19:22:31.272Z,97428.14
2019-04-05T19:24:38.207Z,97434.95
2019-04-05T19:26:44.040Z,97431.41
2019-04-05T19:28:48.801Z,97429.80
2019-04-05T19:48:38.822Z,97433.36
2019-04-05T19:50:42.525Z,97435.02
2019-04-05T19:52:46.238Z,97434.17
2019-04-05T19:54:50.101Z,97437.16
2019-04-05T19:56:53.845Z,97433.06
2019-04-05T19:58:57.645Z,97433.83
2019-04-05T20:01:01.363Z,97432.73
2019-04-05T20:03:05.227Z,97439.52
2019-04-05T20:05:09.605Z,97437.62
2019-04-05T20:07:13.323Z,97434.90
2019-04-05T20:09:17.636Z,97433.25
2019-04-05T20:11:21.363Z,97439.79
2019-04-05T20:13:25.091Z,97440.03
2019-04-05T20:15:28.830Z,97434.34
2019-04-05T20:17:32.542Z,97444.38
2019-04-05T20:19:36.265Z,97441.66
2019-04-05T20:21:39.987Z,97440.55
2019-04-05T20:23:47.630Z,97439.77
2019-04-05T20:25:49.204Z,97429.70
2019-04-05T20:27:53.017Z,97429.18
2019-04-05T20:29:56.784Z,97433.55
2019-04-05T20:32:00.561Z,97432.45
2019-04-05T20:34:04.599Z,97435.75
2019-04-05T20:36:08.346Z,97439.84
2019-04-05T20:38:15.136Z,97432.77
2019-04-05T20:40:18.891Z,97443.40
2019-04-05T20:42:22.627Z,97439.87
2019-04-05T20:44:26.405Z,97448.84
2019-04-05T20:46:32.153Z,97441.23
2019-04-05T20:48:35.878Z,97442.31
2019-04-05T20:50:39.650Z,97445.03
2019-04-05T20:52:43.389Z,97440.42
2019-04-05T20:54:47.142Z,97439.59
2019-04-05T20:56:50.857Z,97440.71
2019-04-05T20:58:54.568Z,97446.16
2019-04-05T21:00:59.377Z,97446.42
2019-04-05T21:03:03.190Z,97445.34
2019-04-05T21:05:07.177Z,97441.27
2019-04-05T21:07:10.890Z,97442.09
2019-04-05T21:09:14.603Z,97441.53
2019-04-05T21:11:18.493Z,97447.25
2019-04-05T21:13:22.242Z,97438.27
2019-04-05T21:15:25.966Z,97437.73
2019-04-05T21:17:29.715Z,97439.37
2019-04-05T21:19:33.507Z,97433.37
2019-04-05T21:21:37.227Z,97432.83
2019-04-05T21:23:40.936Z,97438.81
2019-04-05T21:25:45.819Z,97438.55
2019-04-05T21:27:49.527Z,97435.30
2019-04-05T21:29:53.247Z,97437.19
2019-04-05T21:31:56.994Z,97442.09
2019-04-05T21:34:00.715Z,97438.27
2019-04-05T21:36:04.738Z,97443.45
2019-04-05T21:38:08.452Z,97451.61
2019-04-05T21:40:12.729Z,97450.25
2019-04-05T21:42:16.446Z,97446.95
2019-04-05T21:44:20.160Z,97451.31
2019-04-05T21:46:23.892Z,97457.03
2019-04-05T21:48:27.656Z,97456.46
2019-04-05T21:50:31.334Z,97449.66
2019-04-05T21:52:35.045Z,97457.55
2019-04-05T21:54:47.230Z,97455.08
2019-04-05T21:56:45.532Z,97449.92
2019-04-05T21:58:49.377Z,97456.70
2019-04-05T22:00:57.270Z,97446.64
2019-04-05T22:03:01.128Z,97453.43
2019-04-05T22:05:05.819Z,97453.13
2019-04-05T22:07:09.534Z,97457.48
2019-04-05T22:09:13.486Z,97456.11
2019-04-05T22:11:17.684Z,97464.78
2019-04-05T22:13:21.393Z,97459.34
2019-04-05T22:15:25.127Z,97461.75
2019-04-05T22:17:28.832Z,97461.73
2019-04-05T22:19:32.568Z,97466.61
2019-04-05T22:21:36.278Z,97467.41
2019-04-05T22:23:39.993Z,97467.09
2019-04-05T22:25:43.739Z,97470.08
2019-04-05T22:27:47.451Z,97473.03
2019-04-05T22:29:51.181Z,97473.81
2019-04-05T22:31:54.924Z,97474.61
2019-04-05T22:33:58.628Z,97475.66
2019-04-05T22:36:02.442Z,97476.70
2019-04-05T22:38:06.229Z,97475.58
2019-04-05T22:40:10.025Z,97479.91
2019-04-05T22:42:13.744Z,97476.87
2019-04-05T22:44:17.525Z,97479.05
2019-04-05T22:46:21.281Z,97472.25
2019-04-05T22:48:24.988Z,97471.42
2019-04-05T22:50:28.750Z,97469.53
2019-04-05T22:52:32.454Z,97474.13
2019-04-05T22:54:36.234Z,97470.33
2019-04-05T22:56:40.023Z,97469.48
2019-04-05T22:58:43.835Z,97468.95
2019-04-05T23:00:47.599Z,97474.36
2019-04-05T23:02:51.341Z,97465.91
2019-04-05T23:04:55.223Z,97467.81
2019-04-05T23:06:58.945Z,97471.02
2019-04-05T23:09:02.832Z,97469.63
2019-04-05T23:11:06.570Z,97464.68
2019-04-05T23:13:10.280Z,97473.60
2019-04-05T23:15:14.251Z,97475.16
2019-04-05T23:17:17.982Z,97477.78
2019-04-05T23:19:21.693Z,97482.05
2019-04-05T23:21:25.418Z,97484.16
2019-04-05T23:23:29.191Z,97489.81
2019-04-05T23:25:32.898Z,97484.66
2019-04-05T23:27:36.667Z,97477.50
2019-04-05T23:29:40.449Z,97474.42
2019-04-05T23:31:44.170Z,97475.98
2019-04-05T23:33:47.930Z,97474.38
2019-04-05T23:35:51.731Z,97477.64
2019-04-05T23:37:55.488Z,97481.70
2019-04-05T23:39:59.202Z,97478.73
2019-04-05T23:42:02.975Z,97480.11
2019-04-05T23:44:06.651Z,97476.34
2019-04-05T23:46:11.365Z,97470.38
2019-04-05T23:48:15.066Z,97475.00
2019-04-05T23:50:18.782Z,97476.89
2019-04-05T23:52:22.550Z,97477.38
2019-04-05T23:54:26.215Z,97486.27
2019-04-05T23:56:29.940Z,97484.59
2019-04-05T23:58:33.646Z,97490.81
